Delta Virtual Airport Information Service

Allentown Lehigh Valley International Airport

ICAO: KABE Country: United States
Latitude: 40.6523 Longitude: -75.4404
Latest Arrival : ASQ5172 (2A) (KATL-KABE) Latest Departure : DALJUMP (KABE-KRDU)


WX CaptureLIVE
Data provided by noaa.gov | Fetched at 03:25:06

METAR : KABE 030851Z 30010G19KT 10SM CLR 06/M03 A2983 RMK AO2 SLP103 T00611033 51023

TAF : KABE 030522Z 0306/0406 29012G20KT P6SM SCT050 FM032000 28009KT P6SM SCT050 FM040200 VRB03KT P6SM SCT080


Runway Data for KABE
Data provided by openaviationdata.com

Runway ID Mag Var Hdg Length Elevation Surface ILS Freq ILS Id ILS Slope
6 -12 63° 7595 ft 394 ft Asphalt 110.7 IABE 3
13 -12 135° 5791 ft 394 ft Asphalt 111.9 IBXY 3
24 -12 243° 7595 ft 394 ft Asphalt -- -- --
31 -12 315° 5791 ft 394 ft Asphalt -- -- --

Allentown Lehigh Valley International Airport, United States
Use only for reference purposes



Not for navigational purposes.